Halifax, Canada
Current Conditions -  °F | °C
As of 8:00 PM on Tuesday 25 Nov 2014 (Local Time) from CYHZ Reporting Station
Overcast Overcast  
Wind Chill: 52°   Ceiling: 22000
Heat Index: 52°   Visibility: 15mi
Dew Point: 50°   Wind: 16mph
Humidity: 94%   Direction: 200°SSW
Pressure: 29.84"   Gusts: 22mph
Location:  44.65°N, 63.57°W
Report Text: CYHZ 260000Z 20014G19KT 15SM OVC220 11/10 A2984 RMK CI8 SLP106
Loading
Personal Weather Stations






























Interactive Weather Map New forecast layout! Learn more

10-Day Weather Forecast

Advertisements
Track Severe Weather on mobile